sensor_id;sensor_type;location;lat;lon;timestamp;temperature;humidity
15355;DHT22;7777;52.254;9.618;2023-06-22T00:14:53;19.80;93.40
15355;DHT22;7777;52.254;9.618;2023-06-22T00:20:19;19.80;93.50
15355;DHT22;7777;52.254;9.618;2023-06-22T00:22:45;19.80;93.40
15355;DHT22;7777;52.254;9.618;2023-06-22T00:25:11;19.70;93.40
15355;DHT22;7777;52.254;9.618;2023-06-22T00:27:37;19.70;93.40
15355;DHT22;7777;52.254;9.618;2023-06-22T00:30:03;19.70;93.40
15355;DHT22;7777;52.254;9.618;2023-06-22T00:32:29;19.60;93.30
15355;DHT22;7777;52.254;9.618;2023-06-22T00:34:55;19.60;93.60
15355;DHT22;7777;52.254;9.618;2023-06-22T00:37:21;19.60;93.50
15355;DHT22;7777;52.254;9.618;2023-06-22T00:39:51;19.60;93.60
15355;DHT22;7777;52.254;9.618;2023-06-22T00:42:17;19.60;93.60
15355;DHT22;7777;52.254;9.618;2023-06-22T00:44:43;19.50;93.50
15355;DHT22;7777;52.254;9.618;2023-06-22T00:47:11;19.50;93.50
15355;DHT22;7777;52.254;9.618;2023-06-22T00:49:39;19.50;93.60
15355;DHT22;7777;52.254;9.618;2023-06-22T00:52:06;19.40;93.50
15355;DHT22;7777;52.254;9.618;2023-06-22T00:54:42;19.40;93.60
15355;DHT22;7777;52.254;9.618;2023-06-22T00:57:14;19.40;93.60
15355;DHT22;7777;52.254;9.618;2023-06-22T00:59:47;19.40;93.50
15355;DHT22;7777;52.254;9.618;2023-06-22T01:02:14;19.40;93.50
15355;DHT22;7777;52.254;9.618;2023-06-22T01:04:40;19.30;93.60
15355;DHT22;7777;52.254;9.618;2023-06-22T01:09:49;19.20;93.50
15355;DHT22;7777;52.254;9.618;2023-06-22T01:12:19;19.20;93.70
15355;DHT22;7777;52.254;9.618;2023-06-22T01:14:58;19.20;93.50
15355;DHT22;7777;52.254;9.618;2023-06-22T01:17:31;19.10;93.60
15355;DHT22;7777;52.254;9.618;2023-06-22T01:19:59;19.10;93.50
15355;DHT22;7777;52.254;9.618;2023-06-22T01:22:30;19.10;93.50
15355;DHT22;7777;52.254;9.618;2023-06-22T01:25:12;19.00;93.60
15355;DHT22;7777;52.254;9.618;2023-06-22T01:27:56;19.00;93.60
15355;DHT22;7777;52.254;9.618;2023-06-22T01:30:30;19.00;93.60
15355;DHT22;7777;52.254;9.618;2023-06-22T01:32:57;18.90;93.50
15355;DHT22;7777;52.254;9.618;2023-06-22T01:35:24;18.90;93.60
15355;DHT22;7777;52.254;9.618;2023-06-22T01:37:50;18.90;93.40
15355;DHT22;7777;52.254;9.618;2023-06-22T01:40:17;18.90;93.60
15355;DHT22;7777;52.254;9.618;2023-06-22T01:42:44;18.80;93.50
15355;DHT22;7777;52.254;9.618;2023-06-22T01:45:11;18.80;93.50
15355;DHT22;7777;52.254;9.618;2023-06-22T01:47:37;18.80;93.50
15355;DHT22;7777;52.254;9.618;2023-06-22T01:50:04;18.80;93.60
15355;DHT22;7777;52.254;9.618;2023-06-22T01:52:30;18.80;93.60
15355;DHT22;7777;52.254;9.618;2023-06-22T01:54:56;18.70;93.60
15355;DHT22;7777;52.254;9.618;2023-06-22T01:57:23;18.70;93.70
15355;DHT22;7777;52.254;9.618;2023-06-22T02:00:11;18.70;93.60
15355;DHT22;7777;52.254;9.618;2023-06-22T02:02:43;18.70;93.80
15355;DHT22;7777;52.254;9.618;2023-06-22T02:05:24;18.70;93.70
15355;DHT22;7777;52.254;9.618;2023-06-22T02:08:13;18.60;93.80
15355;DHT22;7777;52.254;9.618;2023-06-22T02:10:44;18.60;93.80
15355;DHT22;7777;52.254;9.618;2023-06-22T02:13:11;18.60;93.70
15355;DHT22;7777;52.254;9.618;2023-06-22T02:15:38;18.60;93.90
15355;DHT22;7777;52.254;9.618;2023-06-22T02:18:04;18.60;93.60
15355;DHT22;7777;52.254;9.618;2023-06-22T02:20:31;18.50;93.60
15355;DHT22;7777;52.254;9.618;2023-06-22T02:22:56;18.50;93.60
15355;DHT22;7777;52.254;9.618;2023-06-22T02:25:22;18.50;93.60
15355;DHT22;7777;52.254;9.618;2023-06-22T02:27:48;18.50;93.60
15355;DHT22;7777;52.254;9.618;2023-06-22T02:30:14;18.50;93.70
15355;DHT22;7777;52.254;9.618;2023-06-22T02:32:41;18.50;93.70
15355;DHT22;7777;52.254;9.618;2023-06-22T02:35:11;18.40;93.60
15355;DHT22;7777;52.254;9.618;2023-06-22T02:37:38;18.40;93.70
15355;DHT22;7777;52.254;9.618;2023-06-22T02:40:07;18.40;93.70
15355;DHT22;7777;52.254;9.618;2023-06-22T02:42:37;18.40;93.60
15355;DHT22;7777;52.254;9.618;2023-06-22T02:45:05;18.40;93.70
15355;DHT22;7777;52.254;9.618;2023-06-22T02:47:31;18.40;93.70
15355;DHT22;7777;52.254;9.618;2023-06-22T02:49:57;18.30;93.80
15355;DHT22;7777;52.254;9.618;2023-06-22T02:52:22;18.30;93.80
15355;DHT22;7777;52.254;9.618;2023-06-22T02:54:48;18.30;93.70
15355;DHT22;7777;52.254;9.618;2023-06-22T02:57:14;18.30;93.70
15355;DHT22;7777;52.254;9.618;2023-06-22T02:59:43;18.30;93.90
15355;DHT22;7777;52.254;9.618;2023-06-22T03:02:09;18.30;93.90
15355;DHT22;7777;52.254;9.618;2023-06-22T03:04:36;18.30;93.90
15355;DHT22;7777;52.254;9.618;2023-06-22T03:07:01;18.30;93.90
15355;DHT22;7777;52.254;9.618;2023-06-22T03:09:28;18.30;93.80
15355;DHT22;7777;52.254;9.618;2023-06-22T03:11:54;18.20;93.90
15355;DHT22;7777;52.254;9.618;2023-06-22T03:14:20;18.20;93.90
15355;DHT22;7777;52.254;9.618;2023-06-22T03:16:46;18.20;94.10
15355;DHT22;7777;52.254;9.618;2023-06-22T03:19:12;18.20;94.00
15355;DHT22;7777;52.254;9.618;2023-06-22T03:21:39;18.20;94.00
15355;DHT22;7777;52.254;9.618;2023-06-22T03:24:06;18.20;94.00
15355;DHT22;7777;52.254;9.618;2023-06-22T03:26:32;18.20;94.30
15355;DHT22;7777;52.254;9.618;2023-06-22T03:28:58;18.20;94.00
15355;DHT22;7777;52.254;9.618;2023-06-22T03:31:24;18.20;94.00
15355;DHT22;7777;52.254;9.618;2023-06-22T03:33:50;18.20;94.00
15355;DHT22;7777;52.254;9.618;2023-06-22T03:36:19;18.20;94.00
15355;DHT22;7777;52.254;9.618;2023-06-22T03:38:46;18.20;94.20
15355;DHT22;7777;52.254;9.618;2023-06-22T03:41:12;18.20;94.10
15355;DHT22;7777;52.254;9.618;2023-06-22T03:43:44;18.20;94.10
15355;DHT22;7777;52.254;9.618;2023-06-22T03:46:17;18.20;94.20
15355;DHT22;7777;52.254;9.618;2023-06-22T03:48:46;18.20;94.20
15355;DHT22;7777;52.254;9.618;2023-06-22T03:51:29;18.20;94.40
15355;DHT22;7777;52.254;9.618;2023-06-22T03:54:20;18.20;94.30
15355;DHT22;7777;52.254;9.618;2023-06-22T03:56:46;18.30;94.30
15355;DHT22;7777;52.254;9.618;2023-06-22T03:59:12;18.30;94.40
15355;DHT22;7777;52.254;9.618;2023-06-22T04:01:38;18.30;94.40
15355;DHT22;7777;52.254;9.618;2023-06-22T04:04:03;18.30;94.40
15355;DHT22;7777;52.254;9.618;2023-06-22T04:06:29;18.40;94.50
15355;DHT22;7777;52.254;9.618;2023-06-22T04:08:55;18.30;94.50
15355;DHT22;7777;52.254;9.618;2023-06-22T04:11:21;18.40;94.50
15355;DHT22;7777;52.254;9.618;2023-06-22T04:13:46;18.40;94.60
15355;DHT22;7777;52.254;9.618;2023-06-22T04:16:14;18.50;94.60
15355;DHT22;7777;52.254;9.618;2023-06-22T04:18:39;18.50;94.60
15355;DHT22;7777;52.254;9.618;2023-06-22T04:21:05;18.50;94.60
15355;DHT22;7777;52.254;9.618;2023-06-22T04:23:31;18.50;94.70
15355;DHT22;7777;52.254;9.618;2023-06-22T04:25:57;18.60;94.80
15355;DHT22;7777;52.254;9.618;2023-06-22T04:28:24;18.60;94.80
15355;DHT22;7777;52.254;9.618;2023-06-22T04:30:50;18.60;94.80
15355;DHT22;7777;52.254;9.618;2023-06-22T04:33:16;18.70;94.90
15355;DHT22;7777;52.254;9.618;2023-06-22T04:35:45;18.70;94.90
15355;DHT22;7777;52.254;9.618;2023-06-22T04:38:39;18.80;95.00
15355;DHT22;7777;52.254;9.618;2023-06-22T04:41:10;18.80;95.10
15355;DHT22;7777;52.254;9.618;2023-06-22T04:43:48;18.80;95.00
15355;DHT22;7777;52.254;9.618;2023-06-22T04:46:19;18.90;95.10
15355;DHT22;7777;52.254;9.618;2023-06-22T04:48:45;18.90;95.10
15355;DHT22;7777;52.254;9.618;2023-06-22T04:51:14;18.90;95.10
15355;DHT22;7777;52.254;9.618;2023-06-22T04:53:55;19.00;95.20
15355;DHT22;7777;52.254;9.618;2023-06-22T04:56:26;19.00;95.20
15355;DHT22;7777;52.254;9.618;2023-06-22T04:58:54;19.00;95.20
15355;DHT22;7777;52.254;9.618;2023-06-22T05:01:22;19.10;95.30
15355;DHT22;7777;52.254;9.618;2023-06-22T05:03:49;19.10;95.30
15355;DHT22;7777;52.254;9.618;2023-06-22T05:06:15;19.20;95.40
15355;DHT22;7777;52.254;9.618;2023-06-22T05:08:41;19.20;95.40
15355;DHT22;7777;52.254;9.618;2023-06-22T05:11:07;19.30;95.40
15355;DHT22;7777;52.254;9.618;2023-06-22T05:13:33;19.30;95.50
15355;DHT22;7777;52.254;9.618;2023-06-22T05:15:58;19.30;95.50
15355;DHT22;7777;52.254;9.618;2023-06-22T05:18:30;19.40;95.50
15355;DHT22;7777;52.254;9.618;2023-06-22T05:20:57;19.50;95.60
15355;DHT22;7777;52.254;9.618;2023-06-22T05:23:23;19.50;95.60
15355;DHT22;7777;52.254;9.618;2023-06-22T05:25:49;19.60;95.60
15355;DHT22;7777;52.254;9.618;2023-06-22T05:28:15;19.60;95.70
15355;DHT22;7777;52.254;9.618;2023-06-22T05:30:40;19.70;95.70
15355;DHT22;7777;52.254;9.618;2023-06-22T05:33:06;19.80;95.70
15355;DHT22;7777;52.254;9.618;2023-06-22T05:35:32;19.80;95.70
15355;DHT22;7777;52.254;9.618;2023-06-22T05:37:58;19.80;95.70
15355;DHT22;7777;52.254;9.618;2023-06-22T05:40:23;19.90;95.80
15355;DHT22;7777;52.254;9.618;2023-06-22T05:42:49;19.90;95.80
15355;DHT22;7777;52.254;9.618;2023-06-22T05:45:15;20.00;95.90
15355;DHT22;7777;52.254;9.618;2023-06-22T05:47:40;20.00;95.80
15355;DHT22;7777;52.254;9.618;2023-06-22T05:50:07;20.10;95.90
15355;DHT22;7777;52.254;9.618;2023-06-22T05:52:34;20.10;96.10
15355;DHT22;7777;52.254;9.618;2023-06-22T05:55:01;20.20;96.00
15355;DHT22;7777;52.254;9.618;2023-06-22T05:57:27;20.20;96.00
15355;DHT22;7777;52.254;9.618;2023-06-22T05:59:53;20.30;96.10
15355;DHT22;7777;52.254;9.618;2023-06-22T06:02:19;20.30;96.20
15355;DHT22;7777;52.254;9.618;2023-06-22T06:04:45;20.40;96.20
15355;DHT22;7777;52.254;9.618;2023-06-22T06:07:11;20.40;96.20
15355;DHT22;7777;52.254;9.618;2023-06-22T06:09:37;20.40;96.20
15355;DHT22;7777;52.254;9.618;2023-06-22T06:12:03;20.40;96.20
15355;DHT22;7777;52.254;9.618;2023-06-22T06:14:29;20.50;96.20
15355;DHT22;7777;52.254;9.618;2023-06-22T06:16:55;20.50;96.30
15355;DHT22;7777;52.254;9.618;2023-06-22T06:19:21;20.60;96.30
15355;DHT22;7777;52.254;9.618;2023-06-22T06:21:46;20.60;96.30
15355;DHT22;7777;52.254;9.618;2023-06-22T06:24:12;20.70;96.40
15355;DHT22;7777;52.254;9.618;2023-06-22T06:26:38;20.70;96.70
15355;DHT22;7777;52.254;9.618;2023-06-22T06:29:04;20.80;96.70
15355;DHT22;7777;52.254;9.618;2023-06-22T06:31:30;20.80;96.70
15355;DHT22;7777;52.254;9.618;2023-06-22T06:33:56;20.90;96.60
15355;DHT22;7777;52.254;9.618;2023-06-22T06:36:22;21.00;96.90
15355;DHT22;7777;52.254;9.618;2023-06-22T06:38:47;21.00;96.70
15355;DHT22;7777;52.254;9.618;2023-06-22T06:41:14;21.10;96.80
15355;DHT22;7777;52.254;9.618;2023-06-22T06:43:40;21.10;96.80
15355;DHT22;7777;52.254;9.618;2023-06-22T06:46:08;21.20;96.90
15355;DHT22;7777;52.254;9.618;2023-06-22T06:48:35;21.20;96.90
15355;DHT22;7777;52.254;9.618;2023-06-22T06:51:00;21.20;96.90
15355;DHT22;7777;52.254;9.618;2023-06-22T06:53:26;21.30;96.90
15355;DHT22;7777;52.254;9.618;2023-06-22T06:55:53;21.30;97.00
15355;DHT22;7777;52.254;9.618;2023-06-22T06:58:19;21.40;97.00
15355;DHT22;7777;52.254;9.618;2023-06-22T07:00:45;21.40;97.00
15355;DHT22;7777;52.254;9.618;2023-06-22T07:03:11;21.40;97.20
15355;DHT22;7777;52.254;9.618;2023-06-22T07:05:37;21.50;97.00
15355;DHT22;7777;52.254;9.618;2023-06-22T07:08:02;21.50;97.00
15355;DHT22;7777;52.254;9.618;2023-06-22T07:10:29;21.50;97.10
15355;DHT22;7777;52.254;9.618;2023-06-22T07:12:54;21.60;97.00
15355;DHT22;7777;52.254;9.618;2023-06-22T07:15:20;21.60;97.00
15355;DHT22;7777;52.254;9.618;2023-06-22T07:17:46;21.70;97.10
15355;DHT22;7777;52.254;9.618;2023-06-22T07:20:12;21.70;97.10
15355;DHT22;7777;52.254;9.618;2023-06-22T07:22:38;21.80;97.30
15355;DHT22;7777;52.254;9.618;2023-06-22T07:25:05;21.80;97.20
15355;DHT22;7777;52.254;9.618;2023-06-22T07:27:39;21.80;97.20
15355;DHT22;7777;52.254;9.618;2023-06-22T07:30:09;21.90;97.20
15355;DHT22;7777;52.254;9.618;2023-06-22T07:32:35;21.90;97.10
15355;DHT22;7777;52.254;9.618;2023-06-22T07:35:02;21.90;97.10
15355;DHT22;7777;52.254;9.618;2023-06-22T07:37:28;22.00;97.20
15355;DHT22;7777;52.254;9.618;2023-06-22T07:39:55;22.00;97.20
15355;DHT22;7777;52.254;9.618;2023-06-22T07:42:26;22.00;97.20
15355;DHT22;7777;52.254;9.618;2023-06-22T07:44:53;22.10;97.20
15355;DHT22;7777;52.254;9.618;2023-06-22T07:47:20;22.10;97.20
15355;DHT22;7777;52.254;9.618;2023-06-22T07:49:46;22.10;97.30
15355;DHT22;7777;52.254;9.618;2023-06-22T07:52:12;22.20;97.60
15355;DHT22;7777;52.254;9.618;2023-06-22T07:54:38;22.20;97.40
15355;DHT22;7777;52.254;9.618;2023-06-22T07:57:04;22.20;97.30
15355;DHT22;7777;52.254;9.618;2023-06-22T07:59:30;22.30;97.40
15355;DHT22;7777;52.254;9.618;2023-06-22T08:01:56;22.30;97.40
15355;DHT22;7777;52.254;9.618;2023-06-22T08:04:22;22.30;97.40
15355;DHT22;7777;52.254;9.618;2023-06-22T08:06:50;22.40;97.50
15355;DHT22;7777;52.254;9.618;2023-06-22T08:09:16;22.40;97.50
15355;DHT22;7777;52.254;9.618;2023-06-22T08:11:42;22.50;97.70
15355;DHT22;7777;52.254;9.618;2023-06-22T08:14:07;22.50;97.70
15355;DHT22;7777;52.254;9.618;2023-06-22T08:16:33;22.60;97.60
15355;DHT22;7777;52.254;9.618;2023-06-22T08:18:59;22.60;97.70
15355;DHT22;7777;52.254;9.618;2023-06-22T08:21:25;22.60;97.60
15355;DHT22;7777;52.254;9.618;2023-06-22T08:23:50;22.70;97.60
15355;DHT22;7777;52.254;9.618;2023-06-22T08:26:16;22.70;97.60
15355;DHT22;7777;52.254;9.618;2023-06-22T08:28:42;22.80;97.60
15355;DHT22;7777;52.254;9.618;2023-06-22T08:31:08;22.80;97.70
15355;DHT22;7777;52.254;9.618;2023-06-22T08:33:34;22.80;97.70
15355;DHT22;7777;52.254;9.618;2023-06-22T08:35:59;22.90;97.70
15355;DHT22;7777;52.254;9.618;2023-06-22T08:38:25;22.90;97.80
15355;DHT22;7777;52.254;9.618;2023-06-22T08:40:51;22.90;97.60
15355;DHT22;7777;52.254;9.618;2023-06-22T08:43:17;23.00;97.70
15355;DHT22;7777;52.254;9.618;2023-06-22T08:45:43;23.00;97.70
15355;DHT22;7777;52.254;9.618;2023-06-22T08:48:08;23.00;97.70
15355;DHT22;7777;52.254;9.618;2023-06-22T08:50:34;23.00;97.70
15355;DHT22;7777;52.254;9.618;2023-06-22T08:53:00;23.10;97.70
15355;DHT22;7777;52.254;9.618;2023-06-22T08:55:25;23.10;97.60
15355;DHT22;7777;52.254;9.618;2023-06-22T08:57:51;23.10;97.70
15355;DHT22;7777;52.254;9.618;2023-06-22T09:00:17;23.10;97.90
15355;DHT22;7777;52.254;9.618;2023-06-22T09:02:46;23.20;97.60
15355;DHT22;7777;52.254;9.618;2023-06-22T09:05:12;23.20;97.70
15355;DHT22;7777;52.254;9.618;2023-06-22T09:07:38;23.20;97.70
15355;DHT22;7777;52.254;9.618;2023-06-22T09:10:05;23.20;97.70
15355;DHT22;7777;52.254;9.618;2023-06-22T09:12:31;23.30;97.70
15355;DHT22;7777;52.254;9.618;2023-06-22T09:14:59;23.30;97.80
15355;DHT22;7777;52.254;9.618;2023-06-22T09:17:26;23.40;97.80
15355;DHT22;7777;52.254;9.618;2023-06-22T09:19:52;23.40;97.70
15355;DHT22;7777;52.254;9.618;2023-06-22T09:22:18;23.40;97.70
15355;DHT22;7777;52.254;9.618;2023-06-22T09:24:44;23.50;97.70
15355;DHT22;7777;52.254;9.618;2023-06-22T09:27:10;23.50;97.70
15355;DHT22;7777;52.254;9.618;2023-06-22T09:29:35;23.50;97.80
15355;DHT22;7777;52.254;9.618;2023-06-22T09:32:01;23.60;97.80
15355;DHT22;7777;52.254;9.618;2023-06-22T09:34:27;23.60;97.90
15355;DHT22;7777;52.254;9.618;2023-06-22T09:36:53;23.60;97.90
15355;DHT22;7777;52.254;9.618;2023-06-22T09:39:19;23.70;97.90
15355;DHT22;7777;52.254;9.618;2023-06-22T09:41:45;23.70;97.90
15355;DHT22;7777;52.254;9.618;2023-06-22T09:44:10;23.70;97.90
15355;DHT22;7777;52.254;9.618;2023-06-22T09:46:36;23.80;97.90
15355;DHT22;7777;52.254;9.618;2023-06-22T09:49:02;23.80;97.90
15355;DHT22;7777;52.254;9.618;2023-06-22T09:51:27;23.80;98.20
15355;DHT22;7777;52.254;9.618;2023-06-22T09:53:53;23.90;97.90
15355;DHT22;7777;52.254;9.618;2023-06-22T09:56:19;23.90;97.90
15355;DHT22;7777;52.254;9.618;2023-06-22T09:58:46;24.00;98.00
15355;DHT22;7777;52.254;9.618;2023-06-22T10:01:13;24.00;98.00
15355;DHT22;7777;52.254;9.618;2023-06-22T10:03:42;24.00;97.90
15355;DHT22;7777;52.254;9.618;2023-06-22T10:06:08;24.00;97.90
15355;DHT22;7777;52.254;9.618;2023-06-22T10:08:35;24.00;97.90
15355;DHT22;7777;52.254;9.618;2023-06-22T10:11:01;24.00;98.10
15355;DHT22;7777;52.254;9.618;2023-06-22T10:13:27;24.00;97.90
15355;DHT22;7777;52.254;9.618;2023-06-22T10:15:53;24.00;97.80
15355;DHT22;7777;52.254;9.618;2023-06-22T10:18:19;24.00;97.80
15355;DHT22;7777;52.254;9.618;2023-06-22T10:20:49;24.00;97.80
15355;DHT22;7777;52.254;9.618;2023-06-22T10:23:17;24.00;97.80
15355;DHT22;7777;52.254;9.618;2023-06-22T10:25:43;24.00;97.70
15355;DHT22;7777;52.254;9.618;2023-06-22T10:28:08;24.00;97.80
15355;DHT22;7777;52.254;9.618;2023-06-22T10:30:34;24.00;97.80
15355;DHT22;7777;52.254;9.618;2023-06-22T10:33:00;24.00;97.80
15355;DHT22;7777;52.254;9.618;2023-06-22T10:35:26;24.00;97.80
15355;DHT22;7777;52.254;9.618;2023-06-22T10:37:52;24.00;97.80
15355;DHT22;7777;52.254;9.618;2023-06-22T10:40:20;24.00;97.80
15355;DHT22;7777;52.254;9.618;2023-06-22T10:42:46;24.00;97.80
15355;DHT22;7777;52.254;9.618;2023-06-22T10:45:11;24.00;97.90
15355;DHT22;7777;52.254;9.618;2023-06-22T10:47:37;24.10;97.90
15355;DHT22;7777;52.254;9.618;2023-06-22T10:50:04;24.10;97.90
15355;DHT22;7777;52.254;9.618;2023-06-22T10:52:30;24.20;98.00
15355;DHT22;7777;52.254;9.618;2023-06-22T10:54:57;24.20;98.00
15355;DHT22;7777;52.254;9.618;2023-06-22T10:57:23;24.20;98.00
15355;DHT22;7777;52.254;9.618;2023-06-22T10:59:49;24.20;98.00
15355;DHT22;7777;52.254;9.618;2023-06-22T11:02:14;24.20;98.10
15355;DHT22;7777;52.254;9.618;2023-06-22T11:04:40;24.30;98.10
15355;DHT22;7777;52.254;9.618;2023-06-22T11:07:06;24.30;98.10
15355;DHT22;7777;52.254;9.618;2023-06-22T11:09:32;24.30;98.10
15355;DHT22;7777;52.254;9.618;2023-06-22T11:11:58;24.40;98.20
15355;DHT22;7777;52.254;9.618;2023-06-22T11:14:24;24.40;98.10
15355;DHT22;7777;52.254;9.618;2023-06-22T11:16:50;24.40;98.20
15355;DHT22;7777;52.254;9.618;2023-06-22T11:19:16;24.50;98.20
15355;DHT22;7777;52.254;9.618;2023-06-22T11:21:42;24.50;98.20
15355;DHT22;7777;52.254;9.618;2023-06-22T11:24:08;24.50;98.20
15355;DHT22;7777;52.254;9.618;2023-06-22T11:26:34;24.60;98.20
15355;DHT22;7777;52.254;9.618;2023-06-22T11:29:00;24.60;98.30
15355;DHT22;7777;52.254;9.618;2023-06-22T11:31:26;24.70;98.40
15355;DHT22;7777;52.254;9.618;2023-06-22T11:33:52;24.80;98.50
15355;DHT22;7777;52.254;9.618;2023-06-22T11:36:18;25.00;98.70
15355;DHT22;7777;52.254;9.618;2023-06-22T11:38:44;25.10;98.80
15355;DHT22;7777;52.254;9.618;2023-06-22T11:41:10;25.30;99.10
15355;DHT22;7777;52.254;9.618;2023-06-22T11:43:36;25.50;99.00
15355;DHT22;7777;52.254;9.618;2023-06-22T11:46:03;25.70;99.10
15355;DHT22;7777;52.254;9.618;2023-06-22T11:48:29;25.80;99.00
15355;DHT22;7777;52.254;9.618;2023-06-22T11:50:55;26.00;98.80
15355;DHT22;7777;52.254;9.618;2023-06-22T11:53:23;26.10;98.80
15355;DHT22;7777;52.254;9.618;2023-06-22T11:55:50;26.20;97.80
15355;DHT22;7777;52.254;9.618;2023-06-22T11:58:16;26.30;98.00
15355;DHT22;7777;52.254;9.618;2023-06-22T12:00:42;26.30;98.20
15355;DHT22;7777;52.254;9.618;2023-06-22T12:03:08;26.40;98.40
15355;DHT22;7777;52.254;9.618;2023-06-22T12:05:34;26.40;98.40
15355;DHT22;7777;52.254;9.618;2023-06-22T12:08:00;26.50;98.20
15355;DHT22;7777;52.254;9.618;2023-06-22T12:10:26;26.60;98.70
15355;DHT22;7777;52.254;9.618;2023-06-22T12:12:54;26.70;98.20
15355;DHT22;7777;52.254;9.618;2023-06-22T12:15:20;26.80;98.30
15355;DHT22;7777;52.254;9.618;2023-06-22T12:17:45;26.80;98.00
15355;DHT22;7777;52.254;9.618;2023-06-22T12:20:13;26.80;98.30
15355;DHT22;7777;52.254;9.618;2023-06-22T12:22:40;26.80;98.00
15355;DHT22;7777;52.254;9.618;2023-06-22T12:25:07;26.80;97.80
15355;DHT22;7777;52.254;9.618;2023-06-22T12:27:33;26.80;98.00
15355;DHT22;7777;52.254;9.618;2023-06-22T12:29:59;26.90;98.10
15355;DHT22;7777;52.254;9.618;2023-06-22T12:32:25;26.90;98.10
15355;DHT22;7777;52.254;9.618;2023-06-22T12:34:51;26.90;98.20
15355;DHT22;7777;52.254;9.618;2023-06-22T12:37:17;26.90;98.20
15355;DHT22;7777;52.254;9.618;2023-06-22T12:39:43;26.90;97.80
15355;DHT22;7777;52.254;9.618;2023-06-22T12:42:09;26.90;98.20
15355;DHT22;7777;52.254;9.618;2023-06-22T12:44:38;26.90;98.20
15355;DHT22;7777;52.254;9.618;2023-06-22T12:47:04;26.90;98.00
15355;DHT22;7777;52.254;9.618;2023-06-22T12:49:31;26.90;97.90
15355;DHT22;7777;52.254;9.618;2023-06-22T12:51:57;26.90;97.80
15355;DHT22;7777;52.254;9.618;2023-06-22T12:54:23;26.90;98.00
15355;DHT22;7777;52.254;9.618;2023-06-22T12:56:50;26.90;98.10
15355;DHT22;7777;52.254;9.618;2023-06-22T12:59:16;26.90;98.30
15355;DHT22;7777;52.254;9.618;2023-06-22T13:01:44;26.80;98.40
15355;DHT22;7777;52.254;9.618;2023-06-22T13:04:11;26.80;98.40
15355;DHT22;7777;52.254;9.618;2023-06-22T13:06:44;26.80;98.50
15355;DHT22;7777;52.254;9.618;2023-06-22T13:09:13;26.80;98.60
15355;DHT22;7777;52.254;9.618;2023-06-22T13:11:40;26.80;98.60
15355;DHT22;7777;52.254;9.618;2023-06-22T13:14:06;26.80;98.60
15355;DHT22;7777;52.254;9.618;2023-06-22T13:16:32;26.80;98.70
15355;DHT22;7777;52.254;9.618;2023-06-22T13:18:58;26.70;98.70
15355;DHT22;7777;52.254;9.618;2023-06-22T13:21:24;26.70;98.70
15355;DHT22;7777;52.254;9.618;2023-06-22T13:23:49;26.70;98.60
15355;DHT22;7777;52.254;9.618;2023-06-22T13:26:15;26.70;98.70
15355;DHT22;7777;52.254;9.618;2023-06-22T13:28:41;26.70;98.70
15355;DHT22;7777;52.254;9.618;2023-06-22T13:31:06;26.70;98.70
15355;DHT22;7777;52.254;9.618;2023-06-22T13:33:32;26.80;98.70
15355;DHT22;7777;52.254;9.618;2023-06-22T13:35:58;26.80;98.70
15355;DHT22;7777;52.254;9.618;2023-06-22T13:38:24;26.80;98.70
15355;DHT22;7777;52.254;9.618;2023-06-22T13:40:50;26.80;98.70
15355;DHT22;7777;52.254;9.618;2023-06-22T13:43:16;26.80;98.70
15355;DHT22;7777;52.254;9.618;2023-06-22T13:45:42;26.80;98.60
15355;DHT22;7777;52.254;9.618;2023-06-22T13:48:08;26.80;98.70
15355;DHT22;7777;52.254;9.618;2023-06-22T13:50:34;26.80;98.60
15355;DHT22;7777;52.254;9.618;2023-06-22T13:53:00;26.80;98.60
15355;DHT22;7777;52.254;9.618;2023-06-22T13:55:26;26.80;98.60
15355;DHT22;7777;52.254;9.618;2023-06-22T13:57:52;26.80;98.60
15355;DHT22;7777;52.254;9.618;2023-06-22T14:00:18;26.80;98.70
15355;DHT22;7777;52.254;9.618;2023-06-22T14:02:44;26.80;98.70
15355;DHT22;7777;52.254;9.618;2023-06-22T14:05:10;26.70;98.90
15355;DHT22;7777;52.254;9.618;2023-06-22T14:07:36;26.70;99.00
15355;DHT22;7777;52.254;9.618;2023-06-22T14:10:03;26.70;99.10
15355;DHT22;7777;52.254;9.618;2023-06-22T14:12:29;26.60;99.10
15355;DHT22;7777;52.254;9.618;2023-06-22T14:14:55;26.60;99.30
15355;DHT22;7777;52.254;9.618;2023-06-22T14:17:22;26.50;99.20
15355;DHT22;7777;52.254;9.618;2023-06-22T14:19:51;26.50;99.20
15355;DHT22;7777;52.254;9.618;2023-06-22T14:22:21;26.40;99.20
15355;DHT22;7777;52.254;9.618;2023-06-22T14:24:48;26.40;99.30
15355;DHT22;7777;52.254;9.618;2023-06-22T14:27:14;26.40;99.40
15355;DHT22;7777;52.254;9.618;2023-06-22T14:29:40;26.30;99.40
15355;DHT22;7777;52.254;9.618;2023-06-22T14:32:07;26.30;99.50
15355;DHT22;7777;52.254;9.618;2023-06-22T14:34:34;26.30;99.50
15355;DHT22;7777;52.254;9.618;2023-06-22T14:37:06;26.20;99.60
15355;DHT22;7777;52.254;9.618;2023-06-22T14:39:32;26.20;99.50
15355;DHT22;7777;52.254;9.618;2023-06-22T14:41:58;26.20;99.70
15355;DHT22;7777;52.254;9.618;2023-06-22T14:44:26;26.20;99.70
15355;DHT22;7777;52.254;9.618;2023-06-22T14:46:54;26.10;99.70
15355;DHT22;7777;52.254;9.618;2023-06-22T14:49:21;26.10;99.70
15355;DHT22;7777;52.254;9.618;2023-06-22T14:51:46;26.10;99.70
15355;DHT22;7777;52.254;9.618;2023-06-22T14:54:12;26.10;99.70
15355;DHT22;7777;52.254;9.618;2023-06-22T14:56:38;26.00;99.70
15355;DHT22;7777;52.254;9.618;2023-06-22T14:59:04;25.90;99.70
15355;DHT22;7777;52.254;9.618;2023-06-22T15:01:30;25.90;99.70
15355;DHT22;7777;52.254;9.618;2023-06-22T15:03:55;25.80;99.70
15355;DHT22;7777;52.254;9.618;2023-06-22T15:06:21;25.70;99.90
15355;DHT22;7777;52.254;9.618;2023-06-22T15:08:47;25.60;99.90
15355;DHT22;7777;52.254;9.618;2023-06-22T15:11:13;25.60;99.80
15355;DHT22;7777;52.254;9.618;2023-06-22T15:13:40;25.50;99.60
15355;DHT22;7777;52.254;9.618;2023-06-22T15:16:06;25.40;99.60
15355;DHT22;7777;52.254;9.618;2023-06-22T15:18:33;25.30;99.60
15355;DHT22;7777;52.254;9.618;2023-06-22T15:21:00;25.30;99.90
15355;DHT22;7777;52.254;9.618;2023-06-22T15:23:27;25.10;99.70
15355;DHT22;7777;52.254;9.618;2023-06-22T15:25:58;25.10;99.70
15355;DHT22;7777;52.254;9.618;2023-06-22T15:28:25;25.00;99.60
15355;DHT22;7777;52.254;9.618;2023-06-22T15:30:51;24.90;99.70
15355;DHT22;7777;52.254;9.618;2023-06-22T15:33:17;24.80;99.60
15355;DHT22;7777;52.254;9.618;2023-06-22T15:35:43;24.80;99.70
15355;DHT22;7777;52.254;9.618;2023-06-22T15:38:10;24.70;99.60
15355;DHT22;7777;52.254;9.618;2023-06-22T15:40:39;24.60;99.70
15355;DHT22;7777;52.254;9.618;2023-06-22T15:43:04;24.50;99.80
15355;DHT22;7777;52.254;9.618;2023-06-22T15:45:31;24.40;99.90
15355;DHT22;7777;52.254;9.618;2023-06-22T15:47:57;24.40;99.90
15355;DHT22;7777;52.254;9.618;2023-06-22T15:50:23;24.30;99.70
15355;DHT22;7777;52.254;9.618;2023-06-22T15:52:49;24.30;99.70
15355;DHT22;7777;52.254;9.618;2023-06-22T15:55:17;24.20;99.80
15355;DHT22;7777;52.254;9.618;2023-06-22T15:57:46;24.20;99.80
15355;DHT22;7777;52.254;9.618;2023-06-22T16:00:19;24.10;99.90
15355;DHT22;7777;52.254;9.618;2023-06-22T16:03:02;24.10;99.90